Time;durP1;ratioP1;P1;durP2;ratioP2;P2;SDS_P1;SDS_P2;PMS_P1;PMS_P2;Temp;Humidity;BMP_temperature;BMP_pressure;BME280_temperature;BME280_humidity;BME280_pressure;Samples;Min_cycle;Max_cycle;Signal;HPM_P1;HPM_P2
2022/11/20 00:01:22;;;;;;;7.27;5.70;;;8.70;99.90;;;;;;7390764;19;20159;-76
2022/11/20 00:03:48;;;;;;;7.20;5.03;;;8.90;99.90;;;;;;7387337;19;20142;-76
2022/11/20 00:06:17;;;;;;;7.10;5.33;;;9.00;99.90;;;;;;7388943;19;20171;-75
2022/11/20 00:08:43;;;;;;;7.77;5.70;;;9.00;99.90;;;;;;7388715;19;20135;-76
2022/11/20 00:11:15;;;;;;;8.73;5.00;;;8.90;99.90;;;;;;7389327;19;20210;-76
2022/11/20 00:13:40;;;;;;;7.67;5.70;;;9.00;99.90;;;;;;7388026;19;20484;-75
2022/11/20 00:16:08;;;;;;;9.83;6.03;;;9.00;99.90;;;;;;7389185;19;20142;-75
2022/11/20 00:18:34;;;;;;;7.63;5.43;;;9.00;99.90;;;;;;7387934;19;20242;-76
2022/11/20 00:21:10;;;;;;;7.13;5.53;;;9.00;99.90;;;;;;7392089;19;20595;-75
2022/11/20 00:23:36;;;;;;;7.33;5.60;;;9.00;99.90;;;;;;7390568;19;20166;-76
2022/11/20 00:26:03;;;;;;;9.93;5.80;;;9.00;99.90;;;;;;7392005;19;20730;-76
2022/11/20 00:28:29;;;;;;;9.43;6.10;;;8.90;99.90;;;;;;7387184;19;20138;-76
2022/11/20 00:31:10;;;;;;;10.00;6.57;;;8.90;99.90;;;;;;7390558;19;20480;-75
2022/11/20 00:33:36;;;;;;;9.47;6.00;;;9.00;99.90;;;;;;7389954;19;20499;-75
2022/11/20 00:36:05;;;;;;;9.23;6.13;;;9.00;99.90;;;;;;7387675;19;20235;-76
2022/11/20 00:38:31;;;;;;;7.30;5.30;;;8.60;99.90;;;;;;7390022;19;20138;-76
2022/11/20 00:41:03;;;;;;;11.17;5.60;;;8.50;99.90;;;;;;7389232;19;20148;-76
2022/11/20 00:43:29;;;;;;;8.87;6.00;;;8.90;99.90;;;;;;7390479;19;20597;-75
2022/11/20 00:45:58;;;;;;;7.67;5.60;;;9.00;99.90;;;;;;7387604;19;20168;-75
2022/11/20 00:48:24;;;;;;;6.33;4.80;;;9.00;99.90;;;;;;7387422;19;20179;-77
2022/11/20 00:50:50;;;;;;;8.47;5.10;;;9.00;99.90;;;;;;7386319;19;20142;-76
2022/11/20 00:53:16;;;;;;;7.67;5.07;;;9.00;99.90;;;;;;7390773;19;20139;-76
2022/11/20 00:55:41;;;;;;;7.57;4.73;;;9.00;99.90;;;;;;7387161;19;20153;-76
2022/11/20 00:58:07;;;;;;;4.63;3.33;;;9.10;99.90;;;;;;7384358;19;20158;-75
2022/11/20 01:00:33;;;;;;;4.53;2.70;;;9.10;99.90;;;;;;7386827;19;20874;-76
2022/11/20 01:02:59;;;;;;;3.17;2.50;;;9.00;99.90;;;;;;7387014;19;20499;-75
2022/11/20 01:05:25;;;;;;;3.63;2.70;;;9.00;99.90;;;;;;7386791;19;20162;-75
2022/11/20 01:07:51;;;;;;;3.13;2.40;;;9.00;99.90;;;;;;7387434;19;20160;-75
2022/11/20 01:10:17;;;;;;;4.60;3.20;;;8.90;99.90;;;;;;7386096;19;20217;-75
2022/11/20 01:12:42;;;;;;;2.97;2.30;;;9.00;99.90;;;;;;7388478;19;20153;-76
2022/11/20 01:15:08;;;;;;;3.10;2.60;;;9.20;99.90;;;;;;7385165;19;20147;-76
2022/11/20 01:17:34;;;;;;;4.43;2.30;;;9.20;99.90;;;;;;7385973;19;20143;-74
2022/11/20 01:20:00;;;;;;;4.23;2.80;;;9.20;99.90;;;;;;7386212;19;20222;-76
2022/11/20 01:22:26;;;;;;;3.77;2.97;;;9.20;99.90;;;;;;7388936;19;20139;-75
2022/11/20 01:24:52;;;;;;;4.77;2.17;;;9.20;99.90;;;;;;7388736;19;20146;-76
2022/11/20 01:27:17;;;;;;;2.40;1.77;;;9.20;99.90;;;;;;7387021;19;20624;-76
2022/11/20 01:29:43;;;;;;;2.67;2.20;;;9.10;99.90;;;;;;7379439;19;20195;-75
2022/11/20 01:32:09;;;;;;;3.23;2.17;;;9.20;99.90;;;;;;7386810;19;20198;-76
2022/11/20 01:34:34;;;;;;;3.47;2.20;;;9.30;99.90;;;;;;7384707;19;20533;-76
2022/11/20 01:37:00;;;;;;;3.47;2.33;;;9.20;99.90;;;;;;7386437;19;20218;-75
2022/11/20 01:39:26;;;;;;;2.60;1.87;;;9.30;99.90;;;;;;7384787;19;20217;-74
2022/11/20 01:44:49;;;;;;;2.30;1.77;;;9.30;99.90;;;;;;7386765;19;20615;-75
2022/11/20 01:47:40;;;;;;;2.23;2.03;;;9.30;99.90;;;;;;7388019;19;20159;-75
2022/11/20 01:50:22;;;;;;;5.57;2.37;;;9.20;99.90;;;;;;7383208;19;20190;-76
2022/11/20 01:52:54;;;;;;;2.10;1.77;;;9.10;99.90;;;;;;7387918;19;20168;-75
2022/11/20 01:55:25;;;;;;;2.20;1.90;;;9.20;99.90;;;;;;7385818;19;20143;-75
2022/11/20 01:57:52;;;;;;;2.37;1.60;;;9.30;99.90;;;;;;7383955;19;20151;-76
2022/11/20 02:00:20;;;;;;;3.53;1.47;;;9.20;99.90;;;;;;7385886;19;20161;-76
2022/11/20 02:02:53;;;;;;;2.10;1.73;;;9.20;99.90;;;;;;7384541;19;20142;-76
2022/11/20 02:05:34;;;;;;;2.63;1.90;;;9.30;99.90;;;;;;7385958;19;20138;-76
2022/11/20 02:08:02;;;;;;;2.27;1.90;;;9.20;99.90;;;;;;7386243;19;20165;-76
2022/11/20 02:10:29;;;;;;;2.03;1.63;;;9.30;99.90;;;;;;7385311;19;20173;-75
2022/11/20 02:15:40;;;;;;;2.27;1.57;;;9.20;99.90;;;;;;7387017;19;20150;-75
2022/11/20 02:18:06;;;;;;;3.33;1.70;;;9.10;99.90;;;;;;7384351;19;20181;-75
2022/11/20 02:20:32;;;;;;;2.33;1.63;;;9.10;99.90;;;;;;7382805;19;20127;-75
2022/11/20 02:23:18;;;;;;;2.00;1.60;;;9.10;99.90;;;;;;7384319;19;20219;-75
2022/11/20 02:25:47;;;;;;;2.20;1.93;;;9.20;99.90;;;;;;7380303;19;20680;-75
2022/11/20 02:28:14;;;;;;;3.10;1.63;;;9.30;99.90;;;;;;7383123;19;20154;-75
2022/11/20 02:30:40;;;;;;;2.40;1.70;;;9.30;99.90;;;;;;7383432;19;20640;-76
2022/11/20 02:33:06;;;;;;;2.47;1.83;;;9.10;99.90;;;;;;7385427;19;20143;-75
2022/11/20 02:35:34;;;;;;;2.33;1.70;;;9.20;99.90;;;;;;7385703;19;20149;-76
2022/11/20 02:38:02;;;;;;;4.50;2.07;;;9.10;99.90;;;;;;7382671;19;20628;-76
2022/11/20 02:40:28;;;;;;;3.43;2.30;;;9.10;99.90;;;;;;7383543;19;20600;-76
2022/11/20 02:42:55;;;;;;;2.37;2.00;;;9.00;99.90;;;;;;7384814;19;20139;-76
2022/11/20 02:45:22;;;;;;;3.30;2.10;;;9.30;99.90;;;;;;7386265;19;20135;-77
2022/11/20 02:47:48;;;;;;;2.80;1.80;;;9.20;99.90;;;;;;7383628;19;20147;-75
2022/11/20 02:50:14;;;;;;;2.73;1.97;;;9.30;99.90;;;;;;7382488;19;20178;-75
2022/11/20 02:52:40;;;;;;;4.03;2.23;;;9.20;99.90;;;;;;7385834;19;20275;-75
2022/11/20 02:55:08;;;;;;;3.70;1.87;;;9.30;99.90;;;;;;7386191;19;20151;-76
2022/11/20 02:57:34;;;;;;;2.23;1.90;;;9.20;99.90;;;;;;7381912;19;20957;-75
2022/11/20 03:00:00;;;;;;;1.50;1.40;;;9.10;99.90;;;;;;7384942;19;20162;-76
2022/11/20 03:02:29;;;;;;;2.67;1.57;;;9.10;99.90;;;;;;7387563;19;20160;-76
2022/11/20 03:04:54;;;;;;;2.73;1.60;;;9.20;99.90;;;;;;7388713;19;20173;-76
2022/11/20 03:07:20;;;;;;;2.50;1.83;;;9.20;99.90;;;;;;7387497;19;20146;-77
2022/11/20 03:09:46;;;;;;;1.83;1.57;;;9.10;99.90;;;;;;7384683;19;20143;-76
2022/11/20 03:12:11;;;;;;;2.97;1.70;;;9.00;99.90;;;;;;7385228;19;20173;-75
2022/11/20 03:14:37;;;;;;;1.83;1.60;;;8.90;99.90;;;;;;7399231;19;20602;-76
2022/11/20 03:17:03;;;;;;;2.57;1.60;;;8.80;99.90;;;;;;7397906;19;20306;-76
2022/11/20 03:19:29;;;;;;;3.33;1.80;;;8.90;99.90;;;;;;7396948;19;20155;-75
2022/11/20 03:21:55;;;;;;;2.43;1.70;;;9.10;99.90;;;;;;7396560;19;20150;-77
2022/11/20 03:24:21;;;;;;;2.00;1.60;;;9.00;99.90;;;;;;7395797;19;20142;-77
2022/11/20 03:26:46;;;;;;;3.07;1.67;;;9.00;99.90;;;;;;7396398;19;20146;-77
2022/11/20 03:29:12;;;;;;;3.47;1.60;;;9.20;99.90;;;;;;7396629;19;20206;-76
2022/11/20 03:31:40;;;;;;;2.00;1.77;;;9.10;99.90;;;;;;7395415;19;20150;-75
2022/11/20 03:34:06;;;;;;;2.60;2.10;;;9.00;99.90;;;;;;7397816;19;20145;-76
2022/11/20 03:36:32;;;;;;;2.20;1.87;;;9.00;99.90;;;;;;7397155;19;20235;-76
2022/11/20 03:38:58;;;;;;;3.60;2.00;;;8.70;99.90;;;;;;7397201;19;20150;-76
2022/11/20 03:41:27;;;;;;;4.30;1.80;;;8.60;99.90;;;;;;7398612;19;20604;-76
2022/11/20 03:43:53;;;;;;;3.83;2.00;;;8.70;99.90;;;;;;7397541;19;20487;-75
2022/11/20 03:46:20;;;;;;;2.53;2.07;;;8.60;99.90;;;;;;7396213;19;20130;-76
2022/11/20 03:48:46;;;;;;;6.17;2.27;;;8.70;99.90;;;;;;7395591;19;20138;-76
2022/11/20 03:51:33;;;;;;;4.37;2.20;;;8.70;99.90;;;;;;7394153;19;20181;-76
2022/11/20 03:54:01;;;;;;;3.70;1.80;;;8.90;99.90;;;;;;7393248;19;20495;-75
2022/11/20 03:56:29;;;;;;;2.73;2.30;;;9.00;99.90;;;;;;7396038;19;20570;-76
2022/11/20 03:58:55;;;;;;;4.10;2.67;;;9.10;99.90;;;;;;7395934;19;20146;-74
2022/11/20 04:01:23;;;;;;;2.93;2.23;;;9.10;99.90;;;;;;7395953;19;20127;-75
2022/11/20 04:03:52;;;;;;;8.03;2.27;;;9.20;99.90;;;;;;7395258;19;20206;-76
2022/11/20 04:06:22;;;;;;;3.30;2.10;;;9.00;99.90;;;;;;7396890;19;20497;-75
2022/11/20 04:08:48;;;;;;;2.20;1.90;;;8.70;99.90;;;;;;7395245;19;20149;-75
2022/11/20 04:11:17;;;;;;;2.00;1.80;;;8.60;99.90;;;;;;7397152;19;20588;-75
2022/11/20 04:13:46;;;;;;;3.03;2.13;;;8.60;99.90;;;;;;7396179;19;20230;-75
2022/11/20 04:16:12;;;;;;;2.80;2.23;;;8.80;99.90;;;;;;7397069;19;20214;-76
2022/11/20 04:18:38;;;;;;;2.70;1.93;;;8.90;99.90;;;;;;7395272;19;20600;-76
2022/11/20 04:21:05;;;;;;;4.33;2.40;;;8.90;99.90;;;;;;7400644;19;20138;-76
2022/11/20 04:23:31;;;;;;;2.87;2.30;;;8.90;99.90;;;;;;7397815;19;20156;-76
2022/11/20 04:26:08;;;;;;;2.83;1.93;;;9.00;99.90;;;;;;7388137;19;20134;-76
2022/11/20 04:28:35;;;;;;;3.40;2.30;;;9.00;99.90;;;;;;7392279;19;20135;-75
2022/11/20 04:31:10;;;;;;;2.93;1.70;;;8.90;99.90;;;;;;7392838;19;20206;-75
2022/11/20 04:33:36;;;;;;;2.17;1.63;;;8.80;99.90;;;;;;7391901;19;20138;-75
2022/11/20 04:36:20;;;;;;;2.77;2.07;;;8.90;99.90;;;;;;7387783;19;20134;-76
2022/11/20 04:38:46;;;;;;;2.50;2.00;;;8.90;99.90;;;;;;7389992;19;20147;-75
2022/11/20 04:41:17;;;;;;;5.73;2.30;;;8.70;99.90;;;;;;7391656;19;20162;-75
2022/11/20 04:43:48;;;;;;;3.10;1.70;;;8.90;99.90;;;;;;7390446;19;20624;-75
2022/11/20 04:46:16;;;;;;;2.97;2.10;;;8.70;99.90;;;;;;7389643;19;20157;-75
2022/11/20 04:48:42;;;;;;;2.70;1.90;;;8.60;99.90;;;;;;7389894;19;20158;-75
2022/11/20 04:51:08;;;;;;;3.47;1.90;;;8.50;99.90;;;;;;7388852;19;20719;-75
2022/11/20 04:53:33;;;;;;;2.20;1.90;;;8.60;99.90;;;;;;7391561;19;20773;-75
2022/11/20 04:56:04;;;;;;;2.03;1.77;;;8.70;99.90;;;;;;7391781;19;20198;-75
2022/11/20 04:58:30;;;;;;;2.13;1.60;;;8.80;99.90;;;;;;7386130;19;20202;-76
2022/11/20 05:01:09;;;;;;;3.30;2.03;;;8.70;99.90;;;;;;7387864;19;20605;-76
2022/11/20 05:03:35;;;;;;;1.87;1.70;;;8.50;99.90;;;;;;7388809;19;20145;-75
2022/11/20 05:06:03;;;;;;;2.33;1.73;;;8.50;99.90;;;;;;7385959;19;20147;-75
2022/11/20 05:08:29;;;;;;;2.70;1.90;;;8.50;99.90;;;;;;7388226;19;20139;-75
2022/11/20 05:11:03;;;;;;;2.03;1.83;;;8.70;99.90;;;;;;7385710;19;20142;-75
2022/11/20 05:13:29;;;;;;;2.87;2.13;;;8.80;99.90;;;;;;7386544;19;20166;-75
2022/11/20 05:15:55;;;;;;;2.30;1.80;;;8.80;99.90;;;;;;7386151;19;20168;-76
2022/11/20 05:18:22;;;;;;;2.40;1.90;;;8.90;99.90;;;;;;7386731;19;20613;-75
2022/11/20 05:20:55;;;;;;;3.67;1.90;;;9.00;99.90;;;;;;7386558;19;20243;-76
2022/11/20 05:23:20;;;;;;;2.37;2.00;;;9.00;99.90;;;;;;7387123;19;20135;-76
2022/11/20 05:25:46;;;;;;;4.20;2.00;;;9.00;99.90;;;;;;7387278;19;20139;-75
2022/11/20 05:28:12;;;;;;;2.00;1.50;;;9.00;99.90;;;;;;7386168;19;20155;-76
2022/11/20 05:30:37;;;;;;;2.33;1.80;;;9.00;99.90;;;;;;7386488;19;20138;-76
2022/11/20 05:33:03;;;;;;;3.10;2.00;;;8.90;99.90;;;;;;7386964;19;20146;-75
2022/11/20 05:35:29;;;;;;;2.37;1.87;;;8.80;99.90;;;;;;7386247;19;20172;-75
2022/11/20 05:37:54;;;;;;;2.73;1.80;;;8.90;99.90;;;;;;7384903;19;20144;-77
2022/11/20 05:40:20;;;;;;;5.87;1.80;;;8.80;99.90;;;;;;7385516;19;20134;-76
2022/11/20 05:42:46;;;;;;;3.00;1.50;;;8.80;99.90;;;;;;7385887;19;20155;-76
2022/11/20 05:45:12;;;;;;;2.27;1.60;;;8.80;99.90;;;;;;7385549;19;20154;-75
2022/11/20 05:47:37;;;;;;;2.77;1.73;;;8.80;99.90;;;;;;7385422;19;20149;-76
2022/11/20 05:50:03;;;;;;;2.10;1.80;;;8.90;99.90;;;;;;7383936;19;20498;-75
2022/11/20 05:52:29;;;;;;;3.07;2.07;;;8.90;99.90;;;;;;7385986;19;20170;-75
2022/11/20 05:54:56;;;;;;;2.33;1.87;;;8.90;99.90;;;;;;7385053;19;20142;-74
2022/11/20 05:57:22;;;;;;;1.90;1.60;;;8.80;99.90;;;;;;7384528;19;20153;-75
2022/11/20 05:59:48;;;;;;;2.37;1.90;;;8.90;99.90;;;;;;7385394;19;20151;-76
2022/11/20 06:02:13;;;;;;;2.93;2.13;;;9.00;99.90;;;;;;7386187;19;20628;-75
2022/11/20 06:04:39;;;;;;;1.97;1.63;;;9.00;99.90;;;;;;7386744;19;20138;-75
2022/11/20 06:07:06;;;;;;;1.87;1.37;;;9.00;99.90;;;;;;7386215;19;20138;-75
2022/11/20 06:09:32;;;;;;;2.10;1.77;;;9.00;99.90;;;;;;7384624;19;20150;-76
2022/11/20 06:11:57;;;;;;;1.90;1.70;;;9.20;99.90;;;;;;7386564;19;20206;-77
2022/11/20 06:14:23;;;;;;;2.13;1.60;;;9.10;99.90;;;;;;7386639;19;20143;-76
2022/11/20 06:16:49;;;;;;;2.73;1.80;;;8.90;99.90;;;;;;7385557;19;20126;-76
2022/11/20 06:19:15;;;;;;;1.67;1.50;;;8.90;99.90;;;;;;7387304;19;20138;-75
2022/11/20 06:21:41;;;;;;;2.07;1.40;;;9.00;99.90;;;;;;7387553;19;20452;-75
2022/11/20 06:24:08;;;;;;;2.53;2.03;;;8.80;99.90;;;;;;7387001;19;20162;-75
2022/11/20 06:26:34;;;;;;;2.47;1.67;;;8.90;99.90;;;;;;7386378;19;20654;-75
2022/11/20 06:29:00;;;;;;;2.77;1.47;;;9.10;99.90;;;;;;7385937;19;20214;-75
2022/11/20 06:31:26;;;;;;;1.60;1.30;;;8.90;99.90;;;;;;7385234;19;20146;-75
2022/11/20 06:33:52;;;;;;;3.07;1.80;;;8.80;99.90;;;;;;7387487;19;20142;-75
2022/11/20 06:36:21;;;;;;;3.63;1.77;;;8.80;99.90;;;;;;7385083;19;20158;-76
2022/11/20 06:38:47;;;;;;;4.03;1.60;;;8.80;99.90;;;;;;7387909;19;20159;-75
2022/11/20 06:41:15;;;;;;;2.40;1.37;;;8.70;99.90;;;;;;7386599;19;20149;-76
2022/11/20 06:43:41;;;;;;;2.43;1.60;;;8.90;99.90;;;;;;7386457;19;20159;-76
2022/11/20 06:46:12;;;;;;;2.63;1.80;;;9.00;99.90;;;;;;7387830;19;20146;-75
2022/11/20 06:48:38;;;;;;;2.43;1.50;;;9.20;99.90;;;;;;7384080;19;20180;-75
2022/11/20 06:51:07;;;;;;;2.50;1.53;;;9.30;99.90;;;;;;7389989;19;20476;-75
2022/11/20 06:53:33;;;;;;;3.03;1.27;;;9.10;99.90;;;;;;7386973;19;20770;-76
2022/11/20 06:55:59;;;;;;;1.83;1.47;;;8.90;99.90;;;;;;7386648;19;20146;-76
2022/11/20 06:58:27;;;;;;;1.73;1.10;;;9.10;99.90;;;;;;7382176;19;20506;-75
2022/11/20 07:00:53;;;;;;;2.70;1.43;;;9.20;99.90;;;;;;7383739;19;20139;-76
2022/11/20 07:03:19;;;;;;;2.10;1.40;;;9.20;99.90;;;;;;7386741;19;20158;-75
2022/11/20 07:05:45;;;;;;;2.57;1.50;;;9.10;99.90;;;;;;7385293;19;20131;-75
2022/11/20 07:08:12;;;;;;;2.20;1.70;;;9.30;99.90;;;;;;7384219;19;20139;-75
2022/11/20 07:10:38;;;;;;;3.07;1.60;;;9.20;99.90;;;;;;7387093;19;20131;-75
2022/11/20 07:13:04;;;;;;;1.60;1.20;;;9.10;99.90;;;;;;7387146;19;20206;-75
2022/11/20 07:15:30;;;;;;;1.70;1.50;;;8.90;99.90;;;;;;7385358;19;20636;-75
2022/11/20 07:17:59;;;;;;;2.90;1.27;;;9.00;99.90;;;;;;7385883;19;20142;-76
2022/11/20 07:20:25;;;;;;;2.27;1.50;;;9.00;99.90;;;;;;7384789;19;20153;-76
2022/11/20 07:22:57;;;;;;;2.07;1.50;;;9.10;99.90;;;;;;7384848;19;20576;-76
2022/11/20 07:25:24;;;;;;;1.67;1.27;;;9.20;99.90;;;;;;7385508;19;20176;-76
2022/11/20 07:27:50;;;;;;;1.50;1.30;;;9.10;99.90;;;;;;7384360;19;20158;-75
2022/11/20 07:30:17;;;;;;;1.70;1.43;;;9.30;99.90;;;;;;7384242;19;20191;-76
2022/11/20 07:32:45;;;;;;;2.10;1.20;;;9.20;99.90;;;;;;7386948;19;20902;-76
2022/11/20 07:35:11;;;;;;;2.03;1.57;;;9.10;99.90;;;;;;7384584;19;20155;-76
2022/11/20 07:37:37;;;;;;;2.40;1.60;;;8.80;99.90;;;;;;7382778;19;20159;-77
2022/11/20 07:40:03;;;;;;;1.67;1.50;;;8.90;99.90;;;;;;7384178;19;20220;-76
2022/11/20 07:42:29;;;;;;;1.50;1.40;;;9.10;99.90;;;;;;7386382;19;20139;-76
2022/11/20 07:44:54;;;;;;;1.63;1.37;;;9.20;99.90;;;;;;7381860;19;20162;-77
2022/11/20 07:47:20;;;;;;;2.80;1.60;;;9.00;99.90;;;;;;7384183;19;20130;-76
2022/11/20 07:49:46;;;;;;;1.97;1.30;;;8.90;99.90;;;;;;7383220;19;20163;-76
2022/11/20 07:52:12;;;;;;;2.77;1.50;;;9.10;99.90;;;;;;7385207;19;20208;-76
2022/11/20 07:54:37;;;;;;;2.00;1.50;;;9.10;99.90;;;;;;7383737;19;20154;-77
2022/11/20 07:57:03;;;;;;;2.03;1.27;;;9.10;99.90;;;;;;7382733;19;20146;-76
2022/11/20 07:59:29;;;;;;;1.40;1.30;;;9.20;99.90;;;;;;7384578;19;20143;-77
2022/11/20 08:01:55;;;;;;;1.30;1.20;;;9.20;99.90;;;;;;7391946;19;20190;-76
2022/11/20 08:04:21;;;;;;;2.97;1.63;;;9.30;99.90;;;;;;7396643;19;20574;-76
2022/11/20 08:06:47;;;;;;;1.40;1.30;;;9.20;99.90;;;;;;7395960;19;20155;-76
2022/11/20 08:09:13;;;;;;;1.50;1.20;;;9.30;99.90;;;;;;7395254;19;20150;-76
2022/11/20 08:14:23;;;;;;;1.47;1.10;;;9.50;99.90;;;;;;7397486;19;20637;-76
2022/11/20 08:16:52;;;;;;;2.03;1.40;;;9.30;99.90;;;;;;7390813;19;20175;-76
2022/11/20 08:19:18;;;;;;;1.50;1.23;;;9.40;99.90;;;;;;7395179;19;20161;-78
2022/11/20 08:21:45;;;;;;;2.03;1.10;;;9.50;99.90;;;;;;7397519;19;20604;-76
2022/11/20 08:24:11;;;;;;;3.30;1.40;;;9.40;99.90;;;;;;7398390;19;20157;-77
2022/11/20 08:26:38;;;;;;;1.90;1.27;;;9.10;99.90;;;;;;7396597;19;20147;-77
2022/11/20 08:29:04;;;;;;;1.80;1.30;;;9.20;99.90;;;;;;7394850;19;20143;-77
2022/11/20 08:31:30;;;;;;;1.40;1.17;;;9.00;99.90;;;;;;7398212;19;20604;-76
2022/11/20 08:33:58;;;;;;;2.77;1.17;;;8.90;99.90;;;;;;7396437;19;20624;-77
2022/11/20 08:36:24;;;;;;;1.53;1.30;;;9.10;99.90;;;;;;7396468;19;20151;-76
2022/11/20 08:38:55;;;;;;;1.17;1.07;;;9.00;99.90;;;;;;7397372;19;20135;-77
2022/11/20 08:41:23;;;;;;;2.37;1.20;;;9.30;99.90;;;;;;7397651;19;20576;-75
2022/11/20 08:43:50;;;;;;;0.97;0.90;;;9.50;99.90;;;;;;7396433;19;20148;-75
2022/11/20 08:46:16;;;;;;;1.30;1.20;;;9.70;99.90;;;;;;7397453;19;20134;-75
2022/11/20 08:48:43;;;;;;;1.10;1.00;;;9.60;99.90;;;;;;7395400;19;20143;-75
2022/11/20 08:51:09;;;;;;;3.03;1.10;;;9.60;99.90;;;;;;7397983;19;20482;-74
2022/11/20 08:53:34;;;;;;;1.27;0.93;;;9.60;99.90;;;;;;7397294;19;20487;-75
2022/11/20 08:56:01;;;;;;;1.60;1.20;;;9.70;99.90;;;;;;7387928;19;20222;-77
2022/11/20 08:58:26;;;;;;;1.67;1.13;;;9.50;99.90;;;;;;7386930;19;20158;-76
2022/11/20 09:00:53;;;;;;;1.33;0.87;;;9.70;99.90;;;;;;7388368;19;20178;-76
2022/11/20 09:03:19;;;;;;;1.37;1.00;;;9.50;99.90;;;;;;7389577;19;20143;-75
2022/11/20 09:05:45;;;;;;;1.00;0.90;;;9.40;99.90;;;;;;7387300;19;20679;-75
2022/11/20 09:08:10;;;;;;;1.97;0.87;;;9.30;99.90;;;;;;7389748;19;20138;-75
2022/11/20 09:10:39;;;;;;;0.90;0.90;;;9.40;99.90;;;;;;7389364;19;20948;-78
2022/11/20 09:13:05;;;;;;;2.50;1.10;;;9.70;99.90;;;;;;7393492;19;20142;-76
2022/11/20 09:15:34;;;;;;;1.00;0.90;;;9.60;99.90;;;;;;7392573;19;20138;-75
2022/11/20 09:18:02;;;;;;;1.47;0.93;;;9.80;99.90;;;;;;7387847;19;20588;-75
2022/11/20 09:20:30;;;;;;;1.13;1.00;;;9.80;99.90;;;;;;7391054;19;20150;-80
2022/11/20 09:22:57;;;;;;;1.63;0.90;;;9.90;99.90;;;;;;7390126;19;20146;-76
2022/11/20 09:25:23;;;;;;;1.20;0.83;;;9.90;99.90;;;;;;7388373;19;20153;-77
2022/11/20 09:27:58;;;;;;;0.93;0.80;;;9.90;99.90;;;;;;7388362;19;20146;-76
2022/11/20 09:30:24;;;;;;;4.70;1.40;;;9.90;99.90;;;;;;7385546;19;20138;-76
2022/11/20 09:32:49;;;;;;;0.70;0.70;;;10.00;99.90;;;;;;7387185;19;20154;-75
2022/11/20 09:35:15;;;;;;;0.80;0.60;;;9.90;99.90;;;;;;7389824;19;20138;-75
2022/11/20 09:37:41;;;;;;;1.10;0.70;;;9.70;99.90;;;;;;7386102;19;20130;-75
2022/11/20 09:40:21;;;;;;;1.00;0.70;;;9.90;99.90;;;;;;7380460;19;20118;-76
2022/11/20 09:43:13;;;;;;;0.90;0.70;;;9.80;99.90;;;;;;7384533;19;20154;-76
2022/11/20 09:45:57;;;;;;;0.70;0.70;;;9.70;99.90;;;;;;7386574;19;20159;-75
2022/11/20 09:48:26;;;;;;;0.50;0.50;;;9.60;99.90;;;;;;7388019;19;20133;-75
2022/11/20 09:51:04;;;;;;;0.40;0.40;;;9.70;99.90;;;;;;7384867;19;20130;-76
2022/11/20 09:53:45;;;;;;;0.93;0.60;;;9.60;99.90;;;;;;7384862;19;20139;-77
2022/11/20 09:56:11;;;;;;;0.50;0.50;;;9.60;99.90;;;;;;7380502;19;20130;-76
2022/11/20 09:58:50;;;;;;;1.37;0.57;;;9.80;99.90;;;;;;7381601;19;20174;-76
2022/11/20 10:01:18;;;;;;;0.43;0.43;;;9.70;99.90;;;;;;7385616;19;20512;-76
2022/11/20 10:03:54;;;;;;;0.70;0.50;;;9.70;99.90;;;;;;7382937;19;20583;-76
2022/11/20 10:06:32;;;;;;;0.60;0.40;;;9.70;99.90;;;;;;7384919;19;20168;-75
2022/11/20 10:09:13;;;;;;;2.00;0.60;;;9.50;99.90;;;;;;7386510;19;20557;-77
2022/11/20 10:11:56;;;;;;;0.80;0.60;;;9.50;99.90;;;;;;7385709;19;21310;-75
2022/11/20 10:14:43;;;;;;;0.57;0.57;;;9.80;99.90;;;;;;7386778;19;20143;-76
2022/11/20 10:17:28;;;;;;;0.67;0.63;;;9.60;99.90;;;;;;7387411;19;20145;-76
2022/11/20 10:20:31;;;;;;;1.33;0.53;;;9.60;99.90;;;;;;7385799;19;20593;-77
2022/11/20 10:23:15;;;;;;;0.73;0.50;;;9.70;99.90;;;;;;7383112;19;20237;-75
2022/11/20 10:26:19;;;;;;;0.83;0.50;;;9.80;99.90;;;;;;7387321;19;20495;-75
2022/11/20 10:29:09;;;;;;;0.63;0.47;;;9.90;99.90;;;;;;7383353;19;20172;-76
2022/11/20 10:31:41;;;;;;;0.63;0.63;;;9.90;99.90;;;;;;7387962;19;20183;-76
2022/11/20 10:34:22;;;;;;;0.70;0.60;;;9.90;99.90;;;;;;7385111;19;20865;-77
2022/11/20 10:36:55;;;;;;;1.00;0.80;;;9.70;99.90;;;;;;7386611;19;20139;-76
2022/11/20 10:39:58;;;;;;;1.27;0.90;;;9.50;99.90;;;;;;7386775;19;20880;-77
2022/11/20 10:42:31;;;;;;;1.00;0.70;;;9.50;99.90;;;;;;7385389;19;20631;-76
2022/11/20 10:45:20;;;;;;;1.40;0.90;;;9.60;99.90;;;;;;7386490;19;20221;-77
2022/11/20 10:47:46;;;;;;;1.83;0.90;;;9.50;99.90;;;;;;7386763;19;20213;-77
2022/11/20 10:50:19;;;;;;;0.87;0.70;;;9.70;99.90;;;;;;7385544;19;20551;-76
2022/11/20 10:53:26;;;;;;;0.90;0.77;;;9.70;99.90;;;;;;7390710;19;20142;-78
2022/11/20 10:56:02;;;;;;;1.10;0.77;;;9.70;99.90;;;;;;7388178;19;20134;-77
2022/11/20 10:58:34;;;;;;;0.93;0.87;;;9.40;99.90;;;;;;7385757;19;20154;-77
2022/11/20 11:01:18;;;;;;;1.23;0.70;;;9.40;99.90;;;;;;7389433;19;20130;-77
2022/11/20 11:03:43;;;;;;;0.60;0.60;;;9.60;99.90;;;;;;7386331;19;20255;-75
2022/11/20 11:09:39;;;;;;;0.70;0.70;;;9.50;99.90;;;;;;7357156;19;20142;-76
2022/11/20 11:12:11;;;;;;;1.43;0.90;;;9.50;99.90;;;;;;7356810;19;20190;-77
2022/11/20 11:14:49;;;;;;;2.20;1.00;;;9.60;99.90;;;;;;7383344;19;20138;-76
2022/11/20 11:17:34;;;;;;;1.90;0.80;;;9.80;99.90;;;;;;7386845;19;20177;-76
2022/11/20 11:20:05;;;;;;;1.80;0.70;;;9.80;99.90;;;;;;7381188;19;20198;-76
2022/11/20 11:26:00;;;;;;;0.80;0.80;;;9.60;99.90;;;;;;7344490;19;20193;-77
2022/11/20 11:28:27;;;;;;;1.07;0.90;;;9.70;99.90;;;;;;7382065;19;20155;-77
2022/11/20 11:30:54;;;;;;;1.63;1.13;;;9.50;99.90;;;;;;7385032;19;20142;-75
2022/11/20 11:33:25;;;;;;;1.13;1.03;;;9.80;99.90;;;;;;7381228;19;20869;-77
2022/11/20 11:36:04;;;;;;;2.00;1.80;;;10.10;99.90;;;;;;7389282;19;20162;-77
2022/11/20 11:38:32;;;;;;;1.47;1.37;;;10.30;99.90;;;;;;7393283;19;20545;-76
2022/11/20 11:40:58;;;;;;;2.90;1.17;;;10.40;99.90;;;;;;7388108;19;20162;-77
2022/11/20 11:46:29;;;;;;;1.13;1.03;;;10.60;99.90;;;;;;7385678;19;20149;-77
2022/11/20 11:49:03;;;;;;;1.57;1.10;;;10.70;99.90;;;;;;7391459;19;20126;-77
2022/11/20 11:51:49;;;;;;;1.10;0.90;;;10.70;99.90;;;;;;7388655;19;20138;-77
2022/11/20 11:54:54;;;;;;;1.90;1.10;;;10.90;99.90;;;;;;7390911;19;20515;-76
2022/11/20 11:57:29;;;;;;;1.80;1.27;;;10.80;99.90;;;;;;7391299;19;20241;-76
2022/11/20 12:00:06;;;;;;;2.93;1.17;;;11.00;99.90;;;;;;7392231;19;20147;-75
2022/11/20 12:02:31;;;;;;;1.57;0.90;;;11.00;99.90;;;;;;7388785;19;20228;-75
2022/11/20 12:05:17;;;;;;;2.93;1.00;;;11.10;99.90;;;;;;7389125;19;20150;-77
2022/11/20 12:07:47;;;;;;;1.03;0.93;;;11.10;99.90;;;;;;7394101;19;21671;-76
2022/11/20 12:10:40;;;;;;;2.43;1.07;;;11.40;99.90;;;;;;7393624;19;20617;-77
2022/11/20 12:13:30;;;;;;;1.57;1.10;;;11.10;99.90;;;;;;7393934;19;20147;-72
2022/11/20 12:15:56;;;;;;;2.50;0.90;;;11.10;99.90;;;;;;7396781;19;20150;-77
2022/11/20 12:18:23;;;;;;;1.20;0.90;;;11.00;99.90;;;;;;7399873;19;20143;-77
2022/11/20 12:20:57;;;;;;;1.80;1.07;;;11.00;99.90;;;;;;7398285;19;20151;-77
2022/11/20 12:23:55;;;;;;;1.20;0.93;;;11.00;99.90;;;;;;7397578;19;20134;-76
2022/11/20 12:26:27;;;;;;;1.47;0.80;;;11.10;99.90;;;;;;7391772;19;20134;-79
2022/11/20 12:29:14;;;;;;;1.10;0.80;;;10.90;99.90;;;;;;7392699;19;20158;-77
2022/11/20 12:31:53;;;;;;;1.70;0.83;;;10.90;99.90;;;;;;7394665;19;20134;-82
2022/11/20 12:34:31;;;;;;;2.20;0.90;;;11.00;99.90;;;;;;7393941;19;20138;-79
2022/11/20 12:37:01;;;;;;;3.63;1.20;;;11.10;99.90;;;;;;7393619;19;20210;-77
2022/11/20 12:39:35;;;;;;;1.80;0.93;;;11.40;99.90;;;;;;7399919;19;20145;-89
2022/11/20 12:45:14;;;;;;;1.27;1.00;;;11.50;99.90;;;;;;7389243;19;20138;-78
2022/11/20 12:47:59;;;;;;;2.00;0.90;;;11.50;99.90;;;;;;7397432;19;20306;-78
2022/11/20 12:50:39;;;;;;;0.80;0.70;;;11.70;99.90;;;;;;7393777;19;20130;-78
2022/11/20 12:53:15;;;;;;;0.83;0.70;;;11.60;99.90;;;;;;7395544;19;20159;-80
2022/11/20 12:55:56;;;;;;;0.70;0.70;;;11.70;99.90;;;;;;7396400;19;20134;-77
2022/11/20 12:58:33;;;;;;;1.07;0.90;;;11.80;99.90;;;;;;7392958;19;20146;-77
2022/11/20 13:01:39;;;;;;;1.43;0.90;;;11.60;99.90;;;;;;7395835;19;20134;-78
2022/11/20 13:04:14;;;;;;;3.30;0.90;;;11.60;99.90;;;;;;7393741;19;20150;-80
2022/11/20 13:06:41;;;;;;;1.20;0.87;;;11.60;99.90;;;;;;7397618;19;20531;-79
2022/11/20 13:09:15;;;;;;;1.80;0.77;;;11.50;99.90;;;;;;7397618;19;20532;-78
2022/11/20 13:11:54;;;;;;;1.00;0.70;;;11.70;99.90;;;;;;7395899;19;20523;-79
2022/11/20 13:14:45;;;;;;;2.30;0.60;;;11.70;99.90;;;;;;7395155;19;20170;-79
2022/11/20 13:17:38;;;;;;;0.70;0.53;;;11.50;99.90;;;;;;7395233;19;21569;-78
2022/11/20 13:20:09;;;;;;;1.33;0.60;;;11.40;99.90;;;;;;7397200;19;20605;-78
2022/11/20 13:22:44;;;;;;;0.73;0.60;;;11.40;99.90;;;;;;7395686;19;20146;-80
2022/11/20 13:25:42;;;;;;;1.43;0.60;;;11.30;99.90;;;;;;7392085;19;20142;-79
2022/11/20 13:28:14;;;;;;;1.53;0.67;;;11.20;99.90;;;;;;7391923;19;20138;-78
2022/11/20 13:30:51;;;;;;;2.33;0.70;;;11.20;99.90;;;;;;7393460;19;20142;-80
2022/11/20 13:33:34;;;;;;;1.43;0.50;;;11.10;99.90;;;;;;7394004;19;20209;-77